createdAt,value
2019-01-13T00:02:13.935Z,99697.00
2019-01-13T00:04:44.034Z,99700.00
2019-01-13T00:07:14.110Z,99697.00
2019-01-13T00:09:44.204Z,99697.00
2019-01-13T00:12:14.284Z,99686.00
2019-01-13T00:14:44.376Z,99684.00
2019-01-13T00:17:14.456Z,99682.00
2019-01-13T00:19:44.555Z,99681.00
2019-01-13T00:22:14.626Z,99686.00
2019-01-13T00:24:44.723Z,99678.00
2019-01-13T00:27:14.783Z,99678.00
2019-01-13T00:29:44.891Z,99694.00
2019-01-13T00:32:14.965Z,99692.00
2019-01-13T00:34:45.059Z,99700.00
2019-01-13T00:37:15.127Z,99690.00
2019-01-13T00:39:45.212Z,99709.00
2019-01-13T00:42:15.291Z,99709.00
2019-01-13T00:44:45.386Z,99719.00
2019-01-13T00:47:15.458Z,99714.00
2019-01-13T00:49:45.546Z,99713.00
2019-01-13T00:52:15.623Z,99701.00
2019-01-13T00:54:45.711Z,99715.00
2019-01-13T00:57:15.790Z,99711.00
2019-01-13T00:59:45.882Z,99718.00
2019-01-13T01:02:15.950Z,99710.00
2019-01-13T01:04:46.043Z,99701.00
2019-01-13T01:07:28.256Z,99656.00
2019-01-13T01:09:58.358Z,99705.00
2019-01-13T01:12:28.427Z,99698.00
2019-01-13T01:14:58.534Z,99707.00
2019-01-13T01:17:28.651Z,99713.00
2019-01-13T01:19:58.755Z,99711.00
2019-01-13T01:22:28.830Z,99707.00
2019-01-13T01:24:58.922Z,99712.00
2019-01-13T01:27:28.990Z,99716.00
2019-01-13T01:29:59.091Z,99708.00
2019-01-13T01:32:29.163Z,99706.00
2019-01-13T01:34:59.249Z,99714.00
2019-01-13T01:37:29.314Z,99709.00
2019-01-13T01:39:59.406Z,99720.00
2019-01-13T01:42:29.480Z,99720.00
2019-01-13T01:44:59.578Z,99726.00
2019-01-13T01:47:29.642Z,99729.00
2019-01-13T01:49:59.810Z,99737.00
2019-01-13T01:52:29.878Z,99731.00
2019-01-13T01:55:19.394Z,99730.00
2019-01-13T01:57:49.466Z,99729.00
2019-01-13T02:00:21.958Z,99731.00
2019-01-13T02:02:52.025Z,99736.00
2019-01-13T02:05:22.108Z,99727.00
2019-01-13T02:07:52.172Z,99718.00
2019-01-13T02:10:23.139Z,99717.00
2019-01-13T02:12:53.209Z,99719.00
2019-01-13T02:15:25.519Z,99713.00
2019-01-13T02:17:55.587Z,99720.00
2019-01-13T02:20:25.676Z,99725.00
2019-01-13T02:22:55.750Z,99711.00
2019-01-13T02:25:26.746Z,99721.00
2019-01-13T02:27:56.821Z,99720.00
2019-01-13T02:30:27.382Z,99725.00
2019-01-13T02:32:57.517Z,99721.00
2019-01-13T02:35:27.618Z,99719.00
2019-01-13T02:37:57.693Z,99711.00
2019-01-13T02:40:27.794Z,99715.00
2019-01-13T02:42:57.892Z,99708.00
2019-01-13T02:45:28.453Z,99700.00
2019-01-13T02:47:58.521Z,99702.00
2019-01-13T02:50:28.618Z,99697.00
2019-01-13T02:52:58.761Z,99696.00
2019-01-13T02:55:28.853Z,99692.00
2019-01-13T02:57:58.925Z,99704.00
2019-01-13T03:00:29.026Z,99693.00
2019-01-13T03:02:59.095Z,99703.00
2019-01-13T03:05:29.191Z,99699.00
2019-01-13T03:07:59.259Z,99692.00
2019-01-13T03:10:29.359Z,99696.00
2019-01-13T03:12:59.424Z,99691.00
2019-01-13T03:15:29.524Z,99692.00
2019-01-13T03:17:59.748Z,99703.00
2019-01-13T03:20:29.837Z,99705.00
2019-01-13T03:22:59.906Z,99694.00
2019-01-13T03:25:29.998Z,99691.00
2019-01-13T03:28:00.073Z,99689.00
2019-01-13T03:30:30.158Z,99693.00
2019-01-13T03:33:00.235Z,99687.00
2019-01-13T03:35:30.326Z,99690.00
2019-01-13T03:38:19.829Z,99694.00
2019-01-13T03:40:49.916Z,99686.00
2019-01-13T03:43:19.988Z,99684.00
2019-01-13T03:45:50.075Z,99689.00
2019-01-13T03:48:20.151Z,99683.00
2019-01-13T03:50:50.413Z,99683.00
2019-01-13T03:53:20.483Z,99688.00
2019-01-13T03:55:50.571Z,99688.00
2019-01-13T03:58:20.643Z,99687.00
2019-01-13T04:00:50.726Z,99687.00
2019-01-13T04:03:20.803Z,99684.00
2019-01-13T04:05:50.888Z,99680.00
2019-01-13T04:08:20.963Z,99678.00
2019-01-13T04:10:51.071Z,99681.00
2019-01-13T04:13:21.142Z,99671.00
2019-01-13T04:15:56.255Z,99671.00
2019-01-13T04:18:26.329Z,99658.00
2019-01-13T04:20:56.416Z,99668.00
2019-01-13T04:23:26.489Z,99654.00
2019-01-13T04:25:56.589Z,99665.00
2019-01-13T04:28:26.653Z,99663.00
2019-01-13T04:30:56.749Z,99659.00
2019-01-13T04:33:26.823Z,99650.00
2019-01-13T04:35:56.916Z,99653.00
2019-01-13T04:38:26.992Z,99648.00
2019-01-13T04:40:57.097Z,99645.00
2019-01-13T04:43:27.169Z,99646.00
2019-01-13T04:45:57.267Z,99646.00
2019-01-13T04:48:27.341Z,99639.00
2019-01-13T04:50:57.439Z,99645.00
2019-01-13T04:53:27.509Z,99647.00
2019-01-13T04:55:57.611Z,99647.00
2019-01-13T04:58:27.687Z,99638.00
2019-01-13T05:00:57.787Z,99640.00
2019-01-13T05:03:27.861Z,99642.00
2019-01-13T05:05:57.955Z,99640.00
2019-01-13T05:08:28.031Z,99637.00
2019-01-13T05:11:11.050Z,99640.00
2019-01-13T05:13:41.183Z,99636.00
2019-01-13T05:16:11.274Z,99640.00
2019-01-13T05:18:41.346Z,99642.00
2019-01-13T05:21:11.432Z,99632.00
2019-01-13T05:23:41.500Z,99640.00
2019-01-13T05:26:11.597Z,99632.00
2019-01-13T05:28:41.749Z,99632.00
2019-01-13T05:31:11.845Z,99625.00
2019-01-13T05:33:41.916Z,99622.00
2019-01-13T05:36:12.009Z,99631.00
2019-01-13T05:38:42.073Z,99639.00
2019-01-13T05:41:12.163Z,99630.00
2019-01-13T05:43:42.262Z,99630.00
2019-01-13T05:46:12.331Z,99621.00
2019-01-13T05:48:42.421Z,99612.00
2019-01-13T05:51:12.489Z,99616.00
2019-01-13T05:53:42.582Z,99613.00
2019-01-13T05:56:12.653Z,99599.00
2019-01-13T05:58:42.759Z,99596.00
2019-01-13T06:01:12.831Z,99595.00
2019-01-13T06:03:42.922Z,99596.00
2019-01-13T06:06:13.004Z,99590.00
2019-01-13T06:08:43.099Z,99584.00
2019-01-13T06:11:13.165Z,99587.00
2019-01-13T06:13:43.257Z,99587.00
2019-01-13T06:16:13.440Z,99579.00
2019-01-13T06:18:43.536Z,99580.00
2019-01-13T06:21:13.614Z,99580.00
2019-01-13T06:23:43.702Z,99579.00
2019-01-13T06:26:13.808Z,99573.00
2019-01-13T06:28:43.897Z,99572.00
2019-01-13T06:31:13.970Z,99570.00
2019-01-13T06:33:44.060Z,99575.00
2019-01-13T06:36:14.142Z,99569.00
2019-01-13T06:38:44.231Z,99563.00
2019-01-13T06:41:14.310Z,99565.00
2019-01-13T06:43:44.409Z,99571.00
2019-01-13T06:46:14.482Z,99572.00
2019-01-13T06:48:44.578Z,99562.00
2019-01-13T06:51:14.658Z,99569.00
2019-01-13T06:53:44.758Z,99571.00
2019-01-13T06:56:14.830Z,99573.00
2019-01-13T06:58:44.924Z,99584.00
2019-01-13T07:01:15.003Z,99582.00
2019-01-13T07:03:45.096Z,99582.00
2019-01-13T07:06:15.166Z,99562.00
2019-01-13T07:08:45.329Z,99575.00
2019-01-13T07:11:15.402Z,99560.00
2019-01-13T07:13:45.498Z,99549.00
2019-01-13T07:16:15.642Z,99561.00
2019-01-13T07:18:45.732Z,99547.00
2019-01-13T07:21:15.797Z,99533.00
2019-01-13T07:23:45.882Z,99540.00
2019-01-13T07:26:15.950Z,99539.00
2019-01-13T07:28:46.052Z,99533.00
2019-01-13T07:31:16.119Z,99535.00
2019-01-13T07:33:46.211Z,99532.00
2019-01-13T07:36:16.307Z,99522.00
2019-01-13T07:38:46.390Z,99526.00
2019-01-13T07:41:16.459Z,99520.00
2019-01-13T07:43:46.556Z,99511.00
2019-01-13T07:46:16.631Z,99516.00
2019-01-13T07:48:46.721Z,99503.00
2019-01-13T07:51:16.807Z,99496.00
2019-01-13T07:53:46.908Z,99494.00
2019-01-13T07:56:16.988Z,99492.00
2019-01-13T07:58:47.090Z,99475.00
2019-01-13T08:01:17.170Z,99491.00
2019-01-13T08:03:47.567Z,99485.00
2019-01-13T08:06:17.709Z,99486.00
2019-01-13T08:08:47.809Z,99484.00
2019-01-13T08:11:17.881Z,99484.00
2019-01-13T08:13:48.094Z,99479.00
2019-01-13T08:16:18.214Z,99473.00
2019-01-13T08:18:48.311Z,99478.00
2019-01-13T08:21:18.391Z,99472.00
2019-01-13T08:23:48.479Z,99471.00
2019-01-13T08:26:18.599Z,99456.00
2019-01-13T08:28:48.720Z,99460.00
2019-01-13T08:31:18.795Z,99457.00
2019-01-13T08:33:48.880Z,99453.00
2019-01-13T08:36:19.165Z,99441.00
2019-01-13T08:38:49.546Z,99444.00
2019-01-13T08:41:19.624Z,99446.00
2019-01-13T08:43:49.784Z,99429.00
2019-01-13T08:46:19.928Z,99433.00
2019-01-13T08:48:50.310Z,99430.00
2019-01-13T08:51:20.384Z,99424.00
2019-01-13T08:53:50.470Z,99426.00
2019-01-13T08:56:21.719Z,99412.00
2019-01-13T08:58:52.140Z,99411.00
2019-01-13T09:01:22.205Z,99402.00
2019-01-13T09:03:54.082Z,99386.00
2019-01-13T09:06:24.157Z,99377.00
2019-01-13T09:08:54.462Z,99378.00
2019-01-13T09:11:26.053Z,99364.00
2019-01-13T09:13:56.164Z,99367.00
2019-01-13T09:16:26.546Z,99370.00
2019-01-13T09:18:56.639Z,99369.00
2019-01-13T09:21:26.855Z,99360.00
2019-01-13T09:23:56.951Z,99368.00
2019-01-13T09:26:27.025Z,99363.00
2019-01-13T09:28:57.455Z,99351.00
2019-01-13T09:31:27.524Z,99341.00
2019-01-13T09:33:57.620Z,99340.00
2019-01-13T09:36:27.693Z,99330.00
2019-01-13T09:38:57.794Z,99326.00
2019-01-13T09:41:27.858Z,99325.00
2019-01-13T09:43:59.819Z,99253.00
2019-01-13T09:46:29.901Z,99310.00
2019-01-13T09:49:00.132Z,99291.00
2019-01-13T09:51:30.312Z,99290.00
2019-01-13T09:54:00.487Z,99286.00
2019-01-13T09:56:30.550Z,99281.00
2019-01-13T09:59:00.870Z,99269.00
2019-01-13T10:01:30.945Z,99271.00
2019-01-13T10:04:01.104Z,99273.00
2019-01-13T10:06:31.383Z,99250.00
2019-01-13T10:09:01.568Z,99245.00
2019-01-13T10:11:32.911Z,99239.00
2019-01-13T10:14:03.126Z,99217.00
2019-01-13T10:16:33.245Z,99226.00
2019-01-13T10:19:03.344Z,99213.00
2019-01-13T10:21:33.971Z,99204.00
2019-01-13T10:24:04.327Z,99188.00
2019-01-13T10:26:34.407Z,99181.00
2019-01-13T10:29:04.639Z,99177.00
2019-01-13T10:31:34.719Z,99174.00
2019-01-13T10:34:04.821Z,99163.00
2019-01-13T10:36:34.886Z,99152.00
2019-01-13T10:39:08.699Z,99142.00
2019-01-13T10:41:38.778Z,99140.00
2019-01-13T10:44:08.867Z,99134.00
2019-01-13T10:46:38.996Z,99126.00
2019-01-13T10:49:09.102Z,99121.00
2019-01-13T10:51:39.177Z,99104.00
2019-01-13T10:54:10.262Z,99097.00
2019-01-13T10:56:46.350Z,99094.00
2019-01-13T10:59:16.448Z,99085.00
2019-01-13T11:01:46.525Z,99086.00
2019-01-13T11:04:16.615Z,99071.00
2019-01-13T11:06:46.708Z,99065.00
2019-01-13T11:09:16.814Z,99048.00
2019-01-13T11:11:46.889Z,99052.00
2019-01-13T11:14:16.990Z,99037.00
2019-01-13T11:16:47.062Z,99034.00
2019-01-13T11:19:17.170Z,99019.00
2019-01-13T11:21:47.886Z,99017.00
2019-01-13T11:24:18.050Z,99010.00
2019-01-13T11:26:48.122Z,99005.00
2019-01-13T11:29:18.222Z,99006.00
2019-01-13T11:31:48.292Z,98988.00
2019-01-13T11:34:18.388Z,98979.00
2019-01-13T11:36:48.464Z,98975.00
2019-01-13T11:39:18.561Z,98968.00
2019-01-13T11:41:48.637Z,98967.00
2019-01-13T11:44:18.731Z,98942.00
2019-01-13T11:46:48.824Z,98939.00
2019-01-13T11:49:18.923Z,98928.00
2019-01-13T11:51:49.049Z,98927.00
2019-01-13T11:54:19.143Z,98927.00
2019-01-13T11:56:49.296Z,98915.00
2019-01-13T11:59:19.463Z,98923.00
2019-01-13T12:01:49.674Z,98893.00
2019-01-13T12:04:19.766Z,98894.00
2019-01-13T12:06:49.949Z,98878.00
2019-01-13T12:09:20.117Z,98877.00
2019-01-13T12:11:50.162Z,98865.00
2019-01-13T12:14:20.275Z,98848.00
2019-01-13T12:16:50.382Z,98849.00
2019-01-13T12:19:20.486Z,98840.00
2019-01-13T12:21:50.557Z,98833.00
2019-01-13T12:24:21.725Z,98824.00
2019-01-13T12:26:52.020Z,98815.00
2019-01-13T12:29:22.195Z,98826.00
2019-01-13T12:31:52.262Z,98804.00
2019-01-13T12:34:22.355Z,98806.00
2019-01-13T12:36:52.423Z,98796.00
2019-01-13T12:39:22.514Z,98793.00
2019-01-13T12:41:52.585Z,98778.00
2019-01-13T12:44:22.686Z,98767.00
2019-01-13T12:46:52.993Z,98760.00
2019-01-13T12:49:23.115Z,98755.00
2019-01-13T12:51:53.331Z,98730.00
2019-01-13T12:54:25.044Z,98728.00
2019-01-13T12:56:55.117Z,98728.00
2019-01-13T12:59:25.270Z,98714.00
2019-01-13T13:01:55.334Z,98703.00
2019-01-13T13:04:25.433Z,98717.00
2019-01-13T13:06:55.500Z,98710.00
2019-01-13T13:09:25.617Z,98705.00
2019-01-13T13:11:55.670Z,98691.00
2019-01-13T13:14:26.849Z,98697.00
2019-01-13T13:16:56.923Z,98690.00
2019-01-13T13:19:27.083Z,98695.00
2019-01-13T13:21:57.313Z,98683.00
2019-01-13T13:24:27.396Z,98682.00
2019-01-13T13:27:16.975Z,98679.00
2019-01-13T13:29:47.137Z,98664.00
2019-01-13T13:32:17.351Z,98655.00
2019-01-13T13:34:47.452Z,98650.00
2019-01-13T13:37:36.953Z,98651.00
2019-01-13T13:40:22.857Z,98644.00
2019-01-13T13:42:53.826Z,98636.00
2019-01-13T13:45:25.243Z,98645.00
2019-01-13T13:47:55.315Z,98623.00
2019-01-13T13:50:26.942Z,98623.00
2019-01-13T13:52:57.257Z,98628.00
2019-01-13T13:55:30.181Z,98615.00
2019-01-13T13:58:00.336Z,98603.00
2019-01-13T14:00:32.313Z,98611.00
2019-01-13T14:03:02.431Z,98610.00
2019-01-13T14:05:35.535Z,98606.00
2019-01-13T14:08:05.722Z,98597.00
2019-01-13T14:10:37.571Z,98587.00
2019-01-13T14:13:07.638Z,98588.00
2019-01-13T14:15:37.798Z,98581.00
2019-01-13T14:18:07.872Z,98573.00
2019-01-13T14:20:38.175Z,98575.00
2019-01-13T14:23:08.230Z,98565.00
2019-01-13T14:25:38.405Z,98560.00
2019-01-13T14:28:08.456Z,98565.00
2019-01-13T14:30:38.643Z,98572.00
2019-01-13T14:33:08.825Z,98576.00
2019-01-13T14:35:39.032Z,98568.00
2019-01-13T14:38:09.166Z,98565.00
2019-01-13T14:40:39.338Z,98565.00
2019-01-13T14:43:09.677Z,98546.00
2019-01-13T14:45:39.848Z,98539.00
2019-01-13T14:48:09.912Z,98546.00
2019-01-13T14:50:40.008Z,98544.00
2019-01-13T14:53:10.080Z,98536.00
2019-01-13T14:55:40.199Z,98528.00
2019-01-13T14:58:10.509Z,98521.00
2019-01-13T15:00:40.717Z,98521.00
2019-01-13T15:03:10.753Z,98509.00
2019-01-13T15:05:40.900Z,98513.00
2019-01-13T15:08:11.043Z,98503.00
2019-01-13T15:10:41.248Z,98507.00
2019-01-13T15:13:11.311Z,98490.00
2019-01-13T15:15:41.450Z,98498.00
2019-01-13T15:18:11.536Z,98502.00
2019-01-13T15:20:41.639Z,98495.00
2019-01-13T15:23:11.704Z,98485.00
2019-01-13T15:25:41.795Z,98480.00
2019-01-13T15:28:11.892Z,98482.00
2019-01-13T15:30:42.068Z,98486.00
2019-01-13T15:33:12.115Z,98475.00
2019-01-13T15:35:42.296Z,98476.00
2019-01-13T15:38:12.366Z,98470.00
2019-01-13T15:40:43.748Z,98474.00
2019-01-13T15:43:13.937Z,98455.00
2019-01-13T15:45:44.110Z,98436.00
2019-01-13T15:48:14.394Z,98430.00
2019-01-13T15:50:44.530Z,98416.00
2019-01-13T15:53:14.596Z,98421.00
2019-01-13T15:55:44.698Z,98426.00
2019-01-13T15:58:14.770Z,98415.00
2019-01-13T16:00:44.904Z,98415.00
2019-01-13T16:03:14.985Z,98393.00
2019-01-13T16:05:45.074Z,98392.00
2019-01-13T16:08:15.145Z,98391.00
2019-01-13T16:10:48.436Z,98384.00
2019-01-13T16:13:18.516Z,98368.00
2019-01-13T16:16:08.368Z,98308.00
2019-01-13T16:18:38.515Z,98355.00
2019-01-13T16:21:09.668Z,98346.00
2019-01-13T16:23:39.745Z,98342.00
2019-01-13T16:26:09.847Z,98336.00
2019-01-13T16:28:40.892Z,98349.00
2019-01-13T16:31:10.982Z,98329.00
2019-01-13T16:33:41.054Z,98328.00
2019-01-13T16:36:11.233Z,98325.00
2019-01-13T16:38:41.300Z,98323.00
2019-01-13T16:41:11.397Z,98330.00
2019-01-13T16:43:41.468Z,98314.00
2019-01-13T16:46:11.558Z,98311.00
2019-01-13T16:48:41.623Z,98319.00
2019-01-13T16:51:11.720Z,98308.00
2019-01-13T16:53:41.843Z,98295.00
2019-01-13T16:56:11.946Z,98298.00
2019-01-13T16:58:42.025Z,98299.00
2019-01-13T17:01:12.129Z,98283.00
2019-01-13T17:03:42.197Z,98279.00
2019-01-13T17:06:12.295Z,98273.00
2019-01-13T17:08:42.359Z,98264.00
2019-01-13T17:11:12.466Z,98267.00
2019-01-13T17:13:42.536Z,98266.00
2019-01-13T17:16:12.640Z,98249.00
2019-01-13T17:18:42.718Z,98244.00
2019-01-13T17:21:12.824Z,98238.00
2019-01-13T17:23:42.891Z,98237.00
2019-01-13T17:26:12.987Z,98226.00
2019-01-13T17:28:43.063Z,98233.00
2019-01-13T17:31:13.178Z,98226.00
2019-01-13T17:33:43.254Z,98216.00
2019-01-13T17:36:13.366Z,98221.00
2019-01-13T17:38:43.436Z,98215.00
2019-01-13T17:41:13.548Z,98214.00
2019-01-13T17:43:43.627Z,98218.00
2019-01-13T17:46:13.726Z,98201.00
2019-01-13T17:48:43.848Z,98192.00
2019-01-13T17:51:13.947Z,98183.00
2019-01-13T17:53:44.096Z,98180.00
2019-01-13T17:56:14.201Z,98174.00
2019-01-13T17:58:44.282Z,98185.00
2019-01-13T18:01:17.620Z,98185.00
2019-01-13T18:03:47.689Z,98198.00
2019-01-13T18:06:17.805Z,98205.00
2019-01-13T18:08:47.871Z,98194.00
2019-01-13T18:11:17.969Z,98188.00
2019-01-13T18:13:48.042Z,98178.00
2019-01-13T18:16:18.171Z,98176.00
2019-01-13T18:18:48.271Z,98162.00
2019-01-13T18:21:18.359Z,98179.00
2019-01-13T18:23:48.538Z,98172.00
2019-01-13T18:26:18.596Z,98169.00
2019-01-13T18:28:48.698Z,98150.00
2019-01-13T18:31:18.771Z,98153.00
2019-01-13T18:33:48.878Z,98172.00
2019-01-13T18:36:18.942Z,98179.00
2019-01-13T18:38:49.044Z,98161.00
2019-01-13T18:41:19.113Z,98182.00
2019-01-13T18:43:49.248Z,98202.00
2019-01-13T18:46:19.363Z,98208.00
2019-01-13T18:48:49.461Z,98195.00
2019-01-13T18:51:19.527Z,98199.00
2019-01-13T18:53:49.630Z,98188.00
2019-01-13T18:56:19.701Z,98194.00
2019-01-13T18:58:49.800Z,98199.00
2019-01-13T19:01:19.863Z,98196.00
2019-01-13T19:03:49.956Z,98211.00
2019-01-13T19:06:20.023Z,98204.00
2019-01-13T19:08:50.137Z,98205.00
2019-01-13T19:11:20.377Z,98182.00
2019-01-13T19:14:09.929Z,98197.00
2019-01-13T19:16:44.639Z,98202.00
2019-01-13T19:19:14.736Z,98205.00
2019-01-13T19:21:44.802Z,98210.00
2019-01-13T19:24:14.910Z,98201.00
2019-01-13T19:26:45.323Z,98200.00
2019-01-13T19:29:15.421Z,98213.00
2019-01-13T19:31:45.492Z,98211.00
2019-01-13T19:34:15.598Z,98209.00
2019-01-13T19:36:45.667Z,98205.00
2019-01-13T19:39:15.881Z,98219.00
2019-01-13T19:41:45.964Z,98235.00
2019-01-13T19:44:16.074Z,98229.00
2019-01-13T19:46:46.135Z,98241.00
2019-01-13T19:49:16.307Z,98235.00
2019-01-13T19:51:46.370Z,98223.00
2019-01-13T19:54:16.478Z,98236.00
2019-01-13T19:56:46.560Z,98237.00
2019-01-13T19:59:16.658Z,98236.00
2019-01-13T20:01:46.738Z,98237.00
2019-01-13T20:04:16.841Z,98237.00
2019-01-13T20:06:46.914Z,98246.00
2019-01-13T20:09:17.015Z,98231.00
2019-01-13T20:11:47.090Z,98243.00
2019-01-13T20:14:17.199Z,98250.00
2019-01-13T20:16:47.277Z,98254.00
2019-01-13T20:19:17.386Z,98256.00
2019-01-13T20:21:47.458Z,98250.00
2019-01-13T20:24:17.559Z,98258.00
2019-01-13T20:26:47.636Z,98247.00
2019-01-13T20:29:17.743Z,98244.00
2019-01-13T20:31:47.816Z,98245.00
2019-01-13T20:34:17.943Z,98253.00
2019-01-13T20:36:48.019Z,98245.00
2019-01-13T20:39:18.188Z,98254.00
2019-01-13T20:41:49.875Z,98256.00
2019-01-13T20:44:19.977Z,98249.00
2019-01-13T20:46:50.061Z,98254.00
2019-01-13T20:49:20.145Z,98251.00
2019-01-13T20:51:50.211Z,98254.00
2019-01-13T20:54:20.314Z,98261.00
2019-01-13T20:56:50.386Z,98254.00
2019-01-13T20:59:20.491Z,98254.00
2019-01-13T21:01:50.564Z,98240.00
2019-01-13T21:04:20.671Z,98241.00
2019-01-13T21:06:50.780Z,98244.00
2019-01-13T21:09:20.865Z,98240.00
2019-01-13T21:11:51.315Z,98243.00
2019-01-13T21:14:21.382Z,98238.00
2019-01-13T21:16:51.486Z,98240.00
2019-01-13T21:19:21.561Z,98251.00
2019-01-13T21:21:52.090Z,98254.00
2019-01-13T21:24:22.149Z,98248.00
2019-01-13T21:26:52.256Z,98244.00
2019-01-13T21:29:22.327Z,98246.00
2019-01-13T21:31:52.570Z,98254.00
2019-01-13T21:34:22.584Z,98254.00
2019-01-13T21:36:52.700Z,98258.00
2019-01-13T21:39:22.778Z,98260.00
2019-01-13T21:41:52.933Z,98254.00
2019-01-13T21:44:22.945Z,98255.00
2019-01-13T21:46:53.099Z,98256.00
2019-01-13T21:49:23.249Z,98253.00
2019-01-13T21:51:53.365Z,98264.00
2019-01-13T21:54:23.445Z,98272.00
2019-01-13T21:56:53.543Z,98265.00
2019-01-13T21:59:23.612Z,98266.00
2019-01-13T22:01:53.737Z,98268.00
2019-01-13T22:04:23.809Z,98271.00
2019-01-13T22:06:53.910Z,98251.00
2019-01-13T22:09:23.977Z,98274.00
2019-01-13T22:11:54.073Z,98264.00
2019-01-13T22:14:24.152Z,98280.00
2019-01-13T22:16:54.246Z,98260.00
2019-01-13T22:19:24.314Z,98269.00
2019-01-13T22:21:54.414Z,98260.00
2019-01-13T22:24:25.548Z,98271.00
2019-01-13T22:26:55.640Z,98269.00
2019-01-13T22:29:25.712Z,98264.00
2019-01-13T22:31:55.803Z,98260.00
2019-01-13T22:34:25.876Z,98250.00
2019-01-13T22:36:55.970Z,98263.00
2019-01-13T22:39:26.115Z,98265.00
2019-01-13T22:41:56.209Z,98260.00
2019-01-13T22:44:26.287Z,98275.00
2019-01-13T22:46:56.388Z,98271.00
2019-01-13T22:49:26.470Z,98290.00
2019-01-13T22:51:56.576Z,98293.00
2019-01-13T22:54:26.643Z,98296.00
2019-01-13T22:56:56.744Z,98303.00
2019-01-13T22:59:26.813Z,98307.00
2019-01-13T23:01:56.920Z,98291.00
2019-01-13T23:04:26.998Z,98296.00
2019-01-13T23:06:57.092Z,98298.00
2019-01-13T23:09:27.175Z,98301.00
2019-01-13T23:11:57.264Z,98295.00
2019-01-13T23:14:27.341Z,98307.00
2019-01-13T23:16:57.439Z,98300.00
2019-01-13T23:19:27.514Z,98299.00
2019-01-13T23:21:57.611Z,98290.00
2019-01-13T23:24:27.687Z,98307.00
2019-01-13T23:26:57.782Z,98318.00
2019-01-13T23:29:27.859Z,98318.00
2019-01-13T23:31:57.962Z,98319.00
2019-01-13T23:34:28.874Z,98306.00
2019-01-13T23:36:59.103Z,98333.00
2019-01-13T23:39:29.179Z,98332.00
2019-01-13T23:41:59.283Z,98336.00
2019-01-13T23:44:29.371Z,98352.00
2019-01-13T23:46:59.455Z,98356.00
2019-01-13T23:49:29.564Z,98359.00
2019-01-13T23:51:59.652Z,98363.00
2019-01-13T23:54:29.725Z,98378.00
2019-01-13T23:56:59.824Z,98383.00
2019-01-13T23:59:31.241Z,98392.00
